South Attleboro, Massachusetts
Current Conditions -  °F | °C
As of 4:15 AM on Monday 20 Oct 2014 (Local Time) from KSFZ Reporting Station
Clear Clear  
Wind Chill: 30°   Ceiling: Unl
Heat Index: 30°   Visibility: 10mi
Dew Point: 19°   Wind: 0mph
Humidity: 64%   Direction: NA
Pressure: 29.99"   Gusts: NA
Location:  41.9304°N, 71.2954°W
Report Text: KSFZ 200815Z 00000KT 10SM CLR M01/M07 A2999 RMK AO1
Loading
Personal Weather Stations






























Interactive Weather Map
Tropical Storm Tracking
New forecast layout! Learn more

10-Day Weather Forecast

Advertisements
Track Severe Weather on mobile